Time;durP1;ratioP1;P1;durP2;ratioP2;P2;SDS_P1;SDS_P2;PMS_P1;PMS_P2;Temp;Humidity;BMP_temperature;BMP_pressure;BME280_temperature;BME280_humidity;BME280_pressure;Samples;Min_cycle;Max_cycle;Signal;HPM_P1;HPM_P2
2022/12/03 00:00:42;;;;;;;0.00;0.00;;;;;;;11.72;66.84;102233.41;7356540;19;20676;-56
2022/12/03 00:03:08;;;;;;;0.00;0.00;;;;;;;11.70;66.84;102223.78;7360435;19;20041;-54
2022/12/03 00:05:33;;;;;;;0.00;0.00;;;;;;;11.61;66.97;102204.66;7358480;19;20021;-55
2022/12/03 00:07:58;;;;;;;0.00;0.00;;;;;;;11.69;67.24;102214.22;7357770;19;20011;-54
2022/12/03 00:10:24;;;;;;;0.10;0.10;;;;;;;11.68;66.88;102215.09;7357959;19;20045;-56
2022/12/03 00:12:49;;;;;;;0.10;0.10;;;;;;;11.67;67.23;102215.09;7357487;19;20146;-56
2022/12/03 00:15:15;;;;;;;0.00;0.00;;;;;;;11.69;67.10;102216.81;7358032;19;20006;-54
2022/12/03 00:17:40;;;;;;;0.00;0.00;;;;;;;11.68;67.18;102214.22;7355741;19;20539;-56
2022/12/03 00:20:07;;;;;;;0.00;0.00;;;;;;;11.68;66.55;102217.72;7352277;19;20010;-54
2022/12/03 00:22:33;;;;;;;0.00;0.00;;;;;;;11.63;66.68;102210.75;7354900;19;20010;-55
2022/12/03 00:24:58;;;;;;;0.10;0.10;;;;;;;11.68;66.73;102222.94;7359613;19;20015;-56
2022/12/03 00:27:23;;;;;;;0.00;0.00;;;;;;;11.62;66.45;102204.66;7359749;19;20006;-55
2022/12/03 00:29:49;;;;;;;0.00;0.00;;;;;;;11.57;66.40;102200.31;7359448;19;20043;-56
2022/12/03 00:32:14;;;;;;;0.00;0.00;;;;;;;11.46;66.40;102175.94;7360246;19;20010;-55
2022/12/03 00:34:40;;;;;;;0.00;0.00;;;;;;;11.69;66.61;102222.06;7357272;19;20488;-54
2022/12/03 00:37:05;;;;;;;0.00;0.00;;;;;;;11.70;66.16;102222.94;7359667;19;20002;-56
2022/12/03 00:39:31;;;;;;;0.10;0.10;;;;;;;11.70;66.36;102213.31;7360025;19;20011;-55
2022/12/03 00:41:56;;;;;;;0.00;0.00;;;;;;;11.63;66.28;102206.38;7358260;19;20683;-56
2022/12/03 00:44:21;;;;;;;0.00;0.00;;;;;;;11.71;66.21;102214.22;7357251;19;20014;-54
2022/12/03 00:46:47;;;;;;;0.00;0.00;;;;;;;11.73;66.02;102211.59;7361283;19;20011;-56
2022/12/03 00:49:12;;;;;;;0.00;0.00;;;;;;;11.70;66.21;102208.09;7359233;19;20006;-56
2022/12/03 00:51:37;;;;;;;0.05;0.05;;;;;;;11.24;65.87;102122.78;7361221;19;20019;-56
2022/12/03 00:54:03;;;;;;;0.03;0.03;;;;;;;11.73;65.63;102206.34;7356402;19;20006;-56
2022/12/03 00:56:28;;;;;;;0.00;0.00;;;;;;;11.17;66.22;102112.34;7360077;19;20026;-56
2022/12/03 00:58:54;;;;;;;0.00;0.00;;;;;;;11.67;65.79;102202.88;7356859;19;20047;-56
2022/12/03 01:01:19;;;;;;;0.05;0.05;;;;;;;11.69;66.36;102201.13;7359034;19;20019;-54
2022/12/03 01:03:44;;;;;;;0.10;0.10;;;;;;;11.71;66.11;102214.22;7354665;19;20016;-56
2022/12/03 01:06:10;;;;;;;0.00;0.00;;;;;;;11.69;66.06;102211.59;7358294;19;20018;-55
2022/12/03 01:08:35;;;;;;;0.00;0.00;;;;;;;11.67;66.65;102207.25;7359333;19;20533;-57
2022/12/03 01:11:01;;;;;;;0.10;0.10;;;;;;;11.64;66.30;102208.13;7356785;19;20731;-55
2022/12/03 01:13:26;;;;;;;0.10;0.10;;;;;;;11.68;66.41;102215.09;7358813;19;20014;-56
2022/12/03 01:15:52;;;;;;;0.10;0.10;;;;;;;11.70;66.13;102217.69;7357913;19;20006;-55
2022/12/03 01:18:18;;;;;;;0.00;0.00;;;;;;;11.68;66.30;102220.31;7356840;19;20394;-57
2022/12/03 01:20:43;;;;;;;0.10;0.10;;;;;;;11.69;66.32;102216.81;7359798;19;20013;-56
2022/12/03 01:23:08;;;;;;;0.10;0.10;;;;;;;11.69;66.32;102229.91;7357389;19;20010;-56
2022/12/03 01:25:34;;;;;;;0.00;0.00;;;;;;;11.66;66.23;102206.38;7355448;19;20027;-57
2022/12/03 01:27:59;;;;;;;0.10;0.10;;;;;;;11.68;66.32;102225.56;7356154;19;20083;-56
2022/12/03 01:30:25;;;;;;;0.00;0.00;;;;;;;11.70;66.19;102234.25;7359655;19;20891;-56
2022/12/03 01:32:50;;;;;;;0.05;0.05;;;;;;;11.58;65.70;102217.75;7358818;19;20025;-56
2022/12/03 01:35:15;;;;;;;0.03;0.03;;;;;;;11.68;66.16;102240.38;7358234;19;20011;-57
2022/12/03 01:37:41;;;;;;;0.00;0.00;;;;;;;11.70;66.19;102244.72;7356957;19;20749;-56
2022/12/03 01:40:08;;;;;;;0.10;0.10;;;;;;;11.68;66.23;102238.63;7356898;19;20826;-56
2022/12/03 01:42:39;;;;;;;0.00;0.00;;;;;;;11.72;65.71;102244.75;7353655;19;20107;-55
2022/12/03 01:45:06;;;;;;;0.00;0.00;;;;;;;11.68;66.05;102245.63;7359337;19;20006;-56
2022/12/03 01:47:34;;;;;;;0.00;0.00;;;;;;;11.61;65.67;102226.47;7356152;19;20803;-56
2022/12/03 01:50:10;;;;;;;0.03;0.03;;;;;;;11.68;65.57;102251.72;7356261;19;20015;-56
2022/12/03 01:52:38;;;;;;;0.00;0.00;;;;;;;11.65;65.50;102230.78;7354735;19;20017;-57
2022/12/03 01:55:05;;;;;;;;;;;;;;;11.72;65.44;102239.50;7357902;19;20107;-55
2022/12/03 01:57:46;;;;;;;0.00;0.00;;;;;;;11.70;65.69;102236.88;7355073;19;19946;-55
2022/12/03 02:00:17;;;;;;;0.00;0.00;;;;;;;11.66;65.73;102245.63;7357020;19;20014;-57
2022/12/03 02:02:44;;;;;;;0.03;0.03;;;;;;;11.63;65.95;102245.63;7356570;19;20016;-56
2022/12/03 02:05:21;;;;;;;0.00;0.00;;;;;;;11.60;65.74;102239.53;7359312;19;20040;-56
2022/12/03 02:07:47;;;;;;;0.00;0.00;;;;;;;11.60;65.48;102245.63;7356503;19;20462;-56
2022/12/03 02:10:14;;;;;;;0.10;0.10;;;;;;;11.50;65.79;102233.44;7356788;19;20086;-57
2022/12/03 02:12:51;;;;;;;0.00;0.00;;;;;;;11.63;65.76;102243.00;7352092;19;20022;-57
2022/12/03 02:15:17;;;;;;;0.00;0.00;;;;;;;11.48;65.44;102222.13;7358314;19;20014;-56
2022/12/03 02:17:43;;;;;;;0.00;0.00;;;;;;;11.60;66.15;102245.63;7355930;19;20017;-56
2022/12/03 02:20:10;;;;;;;0.10;0.10;;;;;;;11.61;65.69;102250.00;7355781;19;20473;-56
2022/12/03 02:22:41;;;;;;;0.10;0.10;;;;;;;11.61;65.57;102244.78;7354384;19;20018;-55
2022/12/03 02:25:21;;;;;;;0.00;0.00;;;;;;;11.62;65.67;102246.50;7357810;19;20029;-56
2022/12/03 02:27:47;;;;;;;0.10;0.10;;;;;;;11.60;65.65;102243.00;7353762;19;20015;-55
2022/12/03 02:30:17;;;;;;;0.00;0.00;;;;;;;11.60;66.08;102250.84;7355928;19;20018;-52
2022/12/03 02:32:42;;;;;;;0.10;0.10;;;;;;;11.59;66.11;102238.66;7354836;19;20018;-55
2022/12/03 02:35:35;;;;;;;0.03;0.03;;;;;;;11.63;65.78;102236.91;7356476;19;20015;-54
2022/12/03 02:38:22;;;;;;;0.00;0.00;;;;;;;11.63;65.25;102226.44;7254587;19;2004316;-56
2022/12/03 02:40:51;;;;;;;0.00;0.00;;;;;;;11.58;65.13;102231.69;7353884;19;20356;-56
2022/12/03 02:43:19;;;;;;;0.00;0.00;;;;;;;11.58;65.23;102236.06;7353750;19;20027;-52
2022/12/03 02:45:46;;;;;;;;;;;;;;;11.62;65.64;102230.81;7358281;19;21473;-56
2022/12/03 02:48:21;;;;;;;0.00;0.00;;;;;;;11.58;65.12;102234.31;7355622;19;19929;-53
2022/12/03 02:50:58;;;;;;;0.00;0.00;;;;;;;11.56;65.09;102229.97;7356656;19;20015;-56
2022/12/03 02:53:27;;;;;;;0.10;0.10;;;;;;;11.17;65.60;102169.88;7357594;19;20103;-56
2022/12/03 02:55:55;;;;;;;0.00;0.00;;;;;;;11.49;65.57;102229.09;7351046;19;20014;-56
2022/12/03 02:58:23;;;;;;;0.00;0.00;;;;;;;11.48;65.41;102227.34;7346408;19;20632;-54
2022/12/03 03:00:51;;;;;;;0.00;0.00;;;;;;;11.45;65.24;102224.72;7358956;19;20010;-54
2022/12/03 03:03:18;;;;;;;0.00;0.00;;;;;;;11.45;65.68;102229.97;7348597;19;20026;-56
2022/12/03 03:05:44;;;;;;;0.00;0.00;;;;;;;11.45;65.69;102227.34;7353438;19;20082;-57
2022/12/03 03:08:11;;;;;;;0.10;0.10;;;;;;;11.37;65.99;102213.44;7354204;19;20048;-56
2022/12/03 03:10:38;;;;;;;0.00;0.00;;;;;;;11.42;65.62;102224.75;7354327;19;20023;-56
2022/12/03 03:13:08;;;;;;;0.05;0.05;;;;;;;11.40;65.34;102218.63;7356495;19;20078;-56
2022/12/03 03:15:35;;;;;;;0.05;0.05;;;;;;;11.38;66.05;102220.41;7356858;19;20457;-55
2022/12/03 03:18:01;;;;;;;0.00;0.00;;;;;;;11.36;65.93;102224.78;7355376;19;20358;-55
2022/12/03 03:20:26;;;;;;;0.00;0.00;;;;;;;11.20;65.65;102195.13;7357604;19;20022;-56
2022/12/03 03:22:52;;;;;;;0.00;0.00;;;;;;;11.18;65.64;102192.53;7354020;19;20023;-55
2022/12/03 03:25:20;;;;;;;0.00;0.00;;;;;;;11.31;65.71;102213.44;7355355;19;20007;-56
2022/12/03 03:27:45;;;;;;;0.00;0.00;;;;;;;11.19;65.64;102198.63;7352673;19;20026;-55
2022/12/03 03:30:12;;;;;;;0.00;0.00;;;;;;;11.27;64.97;102211.69;7353365;19;21330;-55
2022/12/03 03:32:39;;;;;;;0.05;0.05;;;;;;;11.24;65.39;102206.47;7358424;19;20006;-57
2022/12/03 03:35:05;;;;;;;0.10;0.10;;;;;;;11.20;65.03;102215.19;7359460;19;20676;-54
2022/12/03 03:37:31;;;;;;;0.00;0.00;;;;;;;11.14;65.19;102211.69;7357017;19;20461;-56
2022/12/03 03:39:56;;;;;;;0.00;0.00;;;;;;;11.10;64.59;102212.59;7360127;19;20003;-57
2022/12/03 03:42:23;;;;;;;0.00;0.00;;;;;;;11.07;65.20;102215.19;7356765;19;20006;-56
2022/12/03 03:44:48;;;;;;;0.00;0.00;;;;;;;10.98;65.29;102204.75;7356943;19;20492;-55
2022/12/03 03:47:15;;;;;;;0.00;0.00;;;;;;;10.99;64.30;102216.06;7355160;19;20014;-56
2022/12/03 03:49:41;;;;;;;0.00;0.00;;;;;;;10.86;64.98;102208.25;7359863;19;20080;-55
2022/12/03 03:52:09;;;;;;;0.00;0.00;;;;;;;10.88;64.89;102209.09;7356427;19;20007;-56
2022/12/03 03:54:35;;;;;;;0.00;0.00;;;;;;;10.83;64.64;102209.97;7355676;19;20734;-56
2022/12/03 03:57:00;;;;;;;0.00;0.00;;;;;;;10.78;65.37;102206.47;7358018;19;20014;-57
2022/12/03 03:59:27;;;;;;;0.00;0.00;;;;;;;10.71;65.02;102204.75;7357889;19;20875;-57
2022/12/03 04:01:52;;;;;;;0.00;0.00;;;;;;;10.67;65.47;102200.38;7363229;19;20384;-56
2022/12/03 04:04:20;;;;;;;0.00;0.00;;;;;;;10.45;64.95;102176.84;7352059;19;20011;-53
2022/12/03 04:06:46;;;;;;;0.00;0.00;;;;;;;10.56;65.32;102195.16;7365245;19;20385;-55
2022/12/03 04:09:12;;;;;;;0.03;0.03;;;;;;;10.51;65.92;102202.09;7363440;19;20952;-57
2022/12/03 04:14:22;;;;;;;0.00;0.00;;;;;;;10.39;65.65;102192.50;7363390;19;20043;-56
2022/12/03 04:16:47;;;;;;;0.00;0.00;;;;;;;10.23;65.45;102165.44;7365002;19;20053;-56
2022/12/03 04:19:12;;;;;;;0.00;0.00;;;;;;;10.29;65.45;102191.63;7358078;19;20003;-56
2022/12/03 04:24:22;;;;;;;0.00;0.00;;;;;;;10.12;65.29;102168.03;7360879;19;20023;-56
2022/12/03 04:29:32;;;;;;;0.00;0.00;;;;;;;9.87;64.25;102138.38;7365267;19;20036;-55
2022/12/03 04:37:25;;;;;;;0.00;0.00;;;;;;;9.59;64.16;102108.75;7366656;19;20031;-55
2022/12/03 04:39:51;;;;;;;0.03;0.03;;;;;;;9.78;64.46;102150.53;7365176;19;20034;-56
2022/12/03 04:42:16;;;;;;;0.10;0.10;;;;;;;9.91;64.78;102173.19;7364187;19;20011;-57
2022/12/03 04:44:42;;;;;;;0.00;0.00;;;;;;;9.93;64.62;102173.19;7365124;19;20074;-56
2022/12/03 04:47:19;;;;;;;0.00;0.00;;;;;;;9.89;65.11;102169.72;7364627;19;20015;-54
2022/12/03 04:49:49;;;;;;;0.00;0.00;;;;;;;9.96;65.47;102176.69;7362907;19;20021;-56
2022/12/03 04:52:17;;;;;;;0.00;0.00;;;;;;;9.97;65.45;102173.22;7360601;19;20007;-54
2022/12/03 04:54:43;;;;;;;0.00;0.00;;;;;;;9.87;65.83;102148.81;7361896;19;20014;-57
2022/12/03 04:57:10;;;;;;;0.00;0.00;;;;;;;9.89;64.96;102143.63;7363787;19;20391;-56
2022/12/03 04:59:35;;;;;;;0.00;0.00;;;;;;;10.05;65.43;102174.13;7362318;19;20019;-57
2022/12/03 05:02:01;;;;;;;0.08;0.08;;;;;;;10.10;65.17;102174.13;7362716;19;20006;-55
2022/12/03 05:04:26;;;;;;;0.00;0.00;;;;;;;10.13;65.50;102175.00;7363869;19;20007;-55
2022/12/03 05:06:52;;;;;;;0.00;0.00;;;;;;;10.16;65.29;102168.94;7361656;19;20039;-56
2022/12/03 05:09:17;;;;;;;0.00;0.00;;;;;;;10.20;65.64;102169.81;7365954;19;20022;-55
2022/12/03 05:11:43;;;;;;;0.00;0.00;;;;;;;10.22;65.07;102163.72;7363930;19;20014;-55
2022/12/03 05:14:09;;;;;;;0.00;0.00;;;;;;;10.27;65.33;102166.38;7364902;19;21392;-55
2022/12/03 05:16:34;;;;;;;0.00;0.00;;;;;;;10.29;65.32;102165.53;7362336;19;20099;-56
2022/12/03 05:19:00;;;;;;;0.00;0.00;;;;;;;10.26;64.64;102154.19;7363470;19;20438;-56
2022/12/03 05:21:26;;;;;;;0.00;0.00;;;;;;;10.23;65.01;102136.72;7363022;19;21065;-56
2022/12/03 05:23:51;;;;;;;0.00;0.00;;;;;;;10.27;64.88;102142.88;7365683;19;20023;-55
2022/12/03 05:26:17;;;;;;;0.00;0.00;;;;;;;10.36;64.54;102151.59;7364154;19;20011;-56
2022/12/03 05:28:42;;;;;;;0.00;0.00;;;;;;;10.41;64.10;102155.94;7364873;19;20362;-55
2022/12/03 05:31:08;;;;;;;0.00;0.00;;;;;;;10.41;63.42;102143.78;7363275;19;20006;-56
2022/12/03 05:33:33;;;;;;;0.00;0.00;;;;;;;10.35;63.64;102133.31;7363571;19;20030;-54
2022/12/03 05:35:59;;;;;;;0.10;0.10;;;;;;;10.42;63.22;102140.28;7364330;19;20011;-56
2022/12/03 05:38:24;;;;;;;0.00;0.00;;;;;;;10.33;64.04;102121.97;7361632;19;20016;-54
2022/12/03 05:40:50;;;;;;;0.00;0.00;;;;;;;10.44;63.62;102137.66;7364382;19;20046;-56
2022/12/03 05:43:15;;;;;;;0.00;0.00;;;;;;;10.44;63.44;102128.13;7363473;19;20020;-57
2022/12/03 05:45:42;;;;;;;0.00;0.00;;;;;;;10.47;63.77;102137.69;7364106;19;20372;-56
2022/12/03 05:48:10;;;;;;;0.00;0.00;;;;;;;10.45;64.18;102127.25;7363851;19;20010;-56
2022/12/03 05:50:37;;;;;;;;;;;;;;;10.53;64.49;102129.84;7364873;19;20098;-56
2022/12/03 05:53:03;;;;;;;0.00;0.00;;;;;;;10.51;64.80;102121.16;7362182;19;19950;-56
2022/12/03 05:55:29;;;;;;;0.03;0.03;;;;;;;10.52;64.44;102126.34;7365341;19;20017;-56
2022/12/03 05:57:54;;;;;;;0.00;0.00;;;;;;;10.51;64.72;102122.00;7361195;19;20023;-56
2022/12/03 06:00:28;;;;;;;0.00;0.00;;;;;;;10.55;65.01;102121.16;7363092;19;20015;-56
2022/12/03 06:02:54;;;;;;;0.00;0.00;;;;;;;10.53;64.87;102122.88;7363648;19;20010;-57
2022/12/03 06:05:21;;;;;;;0.00;0.00;;;;;;;10.55;64.66;102118.53;7363560;19;20034;-56
2022/12/03 06:07:48;;;;;;;0.10;0.10;;;;;;;10.53;65.02;102112.41;7362398;19;20006;-57
2022/12/03 06:10:15;;;;;;;0.00;0.00;;;;;;;10.58;65.02;102115.91;7363423;19;20018;-54
2022/12/03 06:12:41;;;;;;;;;;;;;;;10.64;65.15;102110.69;7363832;19;20014;-55
2022/12/03 06:15:07;;;;;;;0.10;0.10;;;;;;;10.61;64.51;102105.47;7360323;19;19918;-55
2022/12/03 06:17:33;;;;;;;0.00;0.00;;;;;;;10.60;64.22;102105.47;7364693;19;20010;-55
2022/12/03 06:19:59;;;;;;;0.00;0.00;;;;;;;10.61;64.57;102110.69;7359790;19;20029;-54
2022/12/03 06:22:24;;;;;;;0.00;0.00;;;;;;;10.58;64.53;102107.19;7360929;19;20002;-54
2022/12/03 06:24:50;;;;;;;0.00;0.00;;;;;;;10.62;64.37;102112.44;7361531;19;20006;-53
2022/12/03 06:27:17;;;;;;;0.00;0.00;;;;;;;10.61;65.02;102113.31;7363067;19;20006;-55
2022/12/03 06:29:42;;;;;;;0.00;0.00;;;;;;;10.62;64.98;102104.59;7361997;19;20030;-56
2022/12/03 06:32:07;;;;;;;0.00;0.00;;;;;;;10.51;65.33;102075.00;7364059;19;20022;-57
2022/12/03 06:34:34;;;;;;;0.00;0.00;;;;;;;10.63;65.12;102102.84;7358747;19;20046;-56
2022/12/03 06:36:59;;;;;;;0.00;0.00;;;;;;;10.64;65.06;102100.25;7364022;19;20014;-56
2022/12/03 06:39:25;;;;;;;0.03;0.03;;;;;;;10.64;64.78;102092.41;7362239;19;20018;-54
2022/12/03 06:41:50;;;;;;;0.08;0.08;;;;;;;10.67;64.63;102095.88;7363030;19;20573;-52
2022/12/03 06:44:16;;;;;;;0.00;0.00;;;;;;;10.67;65.09;102093.28;7361125;19;20014;-56
2022/12/03 06:46:41;;;;;;;0.10;0.10;;;;;;;10.68;65.11;102081.94;7359189;19;20026;-56
2022/12/03 06:49:09;;;;;;;0.00;0.00;;;;;;;10.55;65.31;102068.03;7363921;19;20031;-55
2022/12/03 06:51:35;;;;;;;0.00;0.00;;;;;;;10.69;64.67;102091.50;7360076;19;20533;-55
2022/12/03 06:54:01;;;;;;;0.00;0.00;;;;;;;10.68;64.65;102090.66;7362247;19;20022;-56
2022/12/03 06:56:27;;;;;;;0.00;0.00;;;;;;;10.56;64.84;102075.88;7360554;19;20581;-56
2022/12/03 06:58:52;;;;;;;0.00;0.00;;;;;;;10.56;64.55;102070.63;7350838;19;20103;-56
2022/12/03 07:01:18;;;;;;;0.00;0.00;;;;;;;10.70;64.59;102088.94;7359794;19;20095;-55
2022/12/03 07:03:43;;;;;;;0.10;0.10;;;;;;;10.65;64.17;102091.53;7360824;19;20074;-55
2022/12/03 07:06:24;;;;;;;0.00;0.00;;;;;;;10.70;64.68;102098.50;7357250;19;20986;-56
2022/12/03 07:08:50;;;;;;;0.00;0.00;;;;;;;10.70;65.01;102082.84;7361468;19;20039;-56
2022/12/03 07:11:30;;;;;;;0.10;0.10;;;;;;;10.61;64.65;102076.72;7361144;19;20011;-56
2022/12/03 07:13:57;;;;;;;0.00;0.00;;;;;;;10.70;64.92;102098.50;7361923;19;20418;-57
2022/12/03 07:16:22;;;;;;;0.00;0.00;;;;;;;10.66;65.06;102089.78;7357814;19;20573;-55
2022/12/03 07:18:48;;;;;;;0.00;0.00;;;;;;;10.71;64.82;102095.03;7359086;19;20003;-57
2022/12/03 07:21:13;;;;;;;0.10;0.10;;;;;;;10.58;65.11;102074.09;7358475;19;20026;-52
2022/12/03 07:23:39;;;;;;;0.00;0.00;;;;;;;10.72;65.04;102101.97;7359889;19;20082;-57
2022/12/03 07:26:04;;;;;;;0.00;0.00;;;;;;;10.72;64.89;102099.38;7360162;19;20023;-56
2022/12/03 07:28:30;;;;;;;0.10;0.10;;;;;;;10.72;64.13;102099.38;7357829;19;20080;-56
2022/12/03 07:30:55;;;;;;;0.00;0.00;;;;;;;10.71;63.61;102092.41;7358942;19;20026;-54
2022/12/03 07:33:20;;;;;;;0.10;0.10;;;;;;;10.69;64.22;102089.78;7356702;19;20865;-55
2022/12/03 07:35:46;;;;;;;0.00;0.00;;;;;;;10.72;64.04;102094.13;7367293;19;20006;-55
2022/12/03 07:38:11;;;;;;;0.10;0.10;;;;;;;10.72;63.71;102088.91;7365307;19;20014;-55
2022/12/03 07:40:37;;;;;;;0.05;0.05;;;;;;;10.71;63.84;102090.66;7367091;19;20034;-57
2022/12/03 07:43:02;;;;;;;0.10;0.10;;;;;;;10.65;63.38;102086.31;7364585;19;20021;-55
2022/12/03 07:45:27;;;;;;;0.00;0.00;;;;;;;10.71;63.18;102095.03;7368201;19;20651;-55
2022/12/03 07:47:53;;;;;;;0.10;0.10;;;;;;;10.70;63.74;102098.50;7361511;19;20022;-56
2022/12/03 07:50:18;;;;;;;0.00;0.00;;;;;;;10.70;63.73;102088.06;7365529;19;20027;-57
2022/12/03 07:52:44;;;;;;;0.10;0.10;;;;;;;10.67;63.63;102082.81;7365342;19;20038;-55
2022/12/03 07:55:11;;;;;;;0.00;0.00;;;;;;;10.71;63.74;102084.56;7365924;19;20033;-56
2022/12/03 07:57:36;;;;;;;0.00;0.00;;;;;;;10.69;63.48;102086.28;7362216;19;20049;-57
2022/12/03 08:00:04;;;;;;;0.10;0.10;;;;;;;10.70;63.00;102088.06;7365756;19;20403;-55
2022/12/03 08:02:29;;;;;;;0.00;0.00;;;;;;;10.65;63.44;102080.22;7350959;19;20018;-55
2022/12/03 08:04:55;;;;;;;0.00;0.00;;;;;;;10.68;63.00;102084.56;7364015;19;20037;-54
2022/12/03 08:07:20;;;;;;;0.00;0.00;;;;;;;10.67;63.22;102093.28;7365927;19;20489;-56
2022/12/03 08:09:45;;;;;;;0.00;0.00;;;;;;;10.64;63.64;102079.34;7367041;19;20014;-57
2022/12/03 08:12:17;;;;;;;0.00;0.00;;;;;;;10.70;63.42;102090.66;7365470;19;20014;-56
2022/12/03 08:14:43;;;;;;;0.03;0.03;;;;;;;10.65;63.35;102091.53;7364088;19;20039;-56
2022/12/03 08:17:13;;;;;;;0.10;0.10;;;;;;;10.69;63.57;102086.28;7368456;19;20027;-56
2022/12/03 08:19:44;;;;;;;0.00;0.00;;;;;;;10.69;63.67;102086.28;7361778;19;20019;-55
2022/12/03 08:22:13;;;;;;;0.00;0.00;;;;;;;10.71;64.04;102080.22;7365852;19;20092;-55
2022/12/03 08:24:39;;;;;;;0.00;0.00;;;;;;;10.61;63.89;102070.63;7366991;19;20062;-56
2022/12/03 08:27:16;;;;;;;0.00;0.00;;;;;;;10.54;63.96;102056.72;7366363;19;20800;-56
2022/12/03 08:29:42;;;;;;;0.03;0.03;;;;;;;10.71;63.84;102081.94;7361849;19;20453;-56
2022/12/03 08:32:10;;;;;;;0.00;0.00;;;;;;;10.72;63.45;102075.84;7364566;19;25289;-55
2022/12/03 08:34:43;;;;;;;0.00;0.00;;;;;;;10.73;63.43;102069.75;7361980;19;20026;-56
2022/12/03 08:37:18;;;;;;;0.00;0.00;;;;;;;10.73;63.40;102072.34;7362738;19;20010;-54
2022/12/03 08:39:47;;;;;;;0.00;0.00;;;;;;;10.71;63.54;102068.88;7364430;19;20465;-55
2022/12/03 08:45:38;;;;;;;0.00;0.00;;;;;;;10.73;63.88;102072.34;7362322;19;20030;-56
2022/12/03 08:48:29;;;;;;;0.05;0.05;;;;;;;10.73;63.68;102073.22;7262231;19;2004269;-56
2022/12/03 08:51:10;;;;;;;0.10;0.10;;;;;;;10.72;63.65;102068.00;7364144;19;20014;-56
2022/12/03 08:54:10;;;;;;;0.00;0.00;;;;;;;10.73;63.97;102067.13;7362805;19;20460;-55
2022/12/03 08:56:36;;;;;;;0.00;0.00;;;;;;;10.70;62.85;102064.53;7264845;19;2004026;-57
2022/12/03 08:59:31;;;;;;;0.00;0.00;;;;;;;10.72;63.29;102049.72;7362691;19;20007;-56
2022/12/03 09:01:57;;;;;;;0.00;0.00;;;;;;;10.68;62.71;102058.44;7262891;19;2004420;-53
2022/12/03 09:04:37;;;;;;;0.03;0.03;;;;;;;10.70;63.17;102056.72;7364994;19;20014;-53
2022/12/03 09:07:03;;;;;;;0.10;0.10;;;;;;;10.65;62.51;102057.56;7365059;19;20011;-55
2022/12/03 09:09:28;;;;;;;0.00;0.00;;;;;;;10.64;62.59;102055.84;7362874;19;20469;-56
2022/12/03 09:11:54;;;;;;;0.10;0.10;;;;;;;10.65;62.72;102060.19;7362852;19;20727;-56
2022/12/03 09:14:21;;;;;;;0.00;0.00;;;;;;;10.65;62.64;102054.09;7353268;19;20003;-56
2022/12/03 09:16:54;;;;;;;0.00;0.00;;;;;;;10.52;63.32;102041.91;7352578;19;20034;-56
2022/12/03 09:19:29;;;;;;;0.00;0.00;;;;;;;10.63;62.53;102051.47;7345475;19;21529;-56
2022/12/03 09:21:56;;;;;;;0.00;0.00;;;;;;;10.68;62.84;102053.22;7355853;19;20027;-56
2022/12/03 09:24:22;;;;;;;0.03;0.03;;;;;;;10.63;62.82;102043.63;7356088;19;20038;-54
2022/12/03 09:26:47;;;;;;;0.00;0.00;;;;;;;10.69;62.97;102047.09;7361173;19;20489;-56
2022/12/03 09:29:13;;;;;;;0.00;0.00;;;;;;;10.69;62.05;102044.50;7361269;19;20019;-57
2022/12/03 09:31:39;;;;;;;0.00;0.00;;;;;;;10.71;62.02;102042.75;7357239;19;20826;-54
2022/12/03 09:34:05;;;;;;;0.00;0.00;;;;;;;10.73;62.38;102047.09;7363630;19;20499;-55
2022/12/03 09:36:31;;;;;;;0.00;0.00;;;;;;;10.73;62.93;102051.47;7360823;19;20569;-56
2022/12/03 09:38:56;;;;;;;0.00;0.00;;;;;;;10.77;62.73;102047.97;7359996;19;20031;-56
2022/12/03 09:41:23;;;;;;;0.00;0.00;;;;;;;10.78;62.96;102050.56;7362924;19;20753;-57
2022/12/03 09:43:50;;;;;;;0.00;0.00;;;;;;;10.77;63.09;102047.97;7358812;19;20031;-56
2022/12/03 09:46:17;;;;;;;0.08;0.08;;;;;;;10.77;63.06;102048.84;7359015;19;20446;-59
2022/12/03 09:48:42;;;;;;;0.00;0.00;;;;;;;10.73;63.06;102041.88;7359641;19;20454;-56
2022/12/03 09:51:09;;;;;;;0.10;0.10;;;;;;;10.80;62.99;102053.19;7359341;19;20017;-55
2022/12/03 09:53:36;;;;;;;0.00;0.00;;;;;;;10.82;63.53;102048.84;7353705;19;20006;-54
2022/12/03 09:56:02;;;;;;;0.00;0.00;;;;;;;10.78;63.75;102042.72;7352386;19;20055;-56
2022/12/03 09:58:28;;;;;;;0.05;0.05;;;;;;;10.74;63.68;102032.28;7353948;19;20006;-55
2022/12/03 10:00:54;;;;;;;0.00;0.00;;;;;;;10.86;64.28;102042.72;7357355;19;20014;-57
2022/12/03 10:03:23;;;;;;;0.10;0.10;;;;;;;10.92;64.06;102045.31;7355532;19;20023;-56
2022/12/03 10:05:50;;;;;;;0.00;0.00;;;;;;;10.97;64.45;102040.09;7359744;19;20019;-56
2022/12/03 10:08:20;;;;;;;0.00;0.00;;;;;;;11.21;65.11;102049.59;7344764;19;20038;-56
2022/12/03 10:10:48;;;;;;;0.00;0.00;;;;;;;11.30;65.28;102023.38;7361049;19;20511;-56
2022/12/03 10:13:30;;;;;;;0.00;0.00;;;;;;;11.73;65.05;102044.13;7360847;19;20010;-57
2022/12/03 10:15:58;;;;;;;0.00;0.00;;;;;;;11.89;63.89;102040.53;7362232;19;20006;-56
2022/12/03 10:18:29;;;;;;;0.10;0.10;;;;;;;12.03;63.60;102041.31;7358151;19;20025;-55
2022/12/03 10:20:55;;;;;;;0.00;0.00;;;;;;;12.12;63.29;102043.88;7363833;19;20015;-56
2022/12/03 10:23:26;;;;;;;0.00;0.00;;;;;;;12.18;62.58;102032.50;7363042;19;20018;-57
2022/12/03 10:25:57;;;;;;;0.10;0.10;;;;;;;12.22;62.56;102035.97;7363169;19;20007;-57
2022/12/03 10:28:38;;;;;;;0.00;0.00;;;;;;;12.22;62.51;102038.56;7361756;19;20010;-55
2022/12/03 10:31:07;;;;;;;0.00;0.00;;;;;;;12.22;61.55;102041.19;7362653;19;20010;-56
2022/12/03 10:33:35;;;;;;;0.00;0.00;;;;;;;12.16;61.57;102048.19;7362237;19;20010;-54
2022/12/03 10:36:25;;;;;;;0.00;0.00;;;;;;;12.16;62.30;102045.56;7363732;19;20502;-54
2022/12/03 10:39:14;;;;;;;0.00;0.00;;;;;;;11.95;62.32;102020.41;7359036;19;20018;-56
2022/12/03 10:41:41;;;;;;;0.00;0.00;;;;;;;11.98;61.62;102043.09;7359711;19;20052;-56
2022/12/03 10:44:17;;;;;;;0.00;0.00;;;;;;;11.94;61.48;102031.78;7357301;19;20038;-56
2022/12/03 10:46:44;;;;;;;0.00;0.00;;;;;;;11.82;61.84;102026.63;7362042;19;20014;-56
2022/12/03 10:49:16;;;;;;;0.03;0.03;;;;;;;11.78;61.76;102021.41;7358192;19;20054;-54
2022/12/03 10:51:42;;;;;;;0.05;0.05;;;;;;;11.53;61.46;101992.75;7360972;19;20021;-56
2022/12/03 10:54:20;;;;;;;0.10;0.10;;;;;;;11.63;61.85;102015.38;7361886;19;21006;-56
2022/12/03 10:56:48;;;;;;;0.00;0.00;;;;;;;11.53;61.19;102010.22;7361637;19;20044;-55
2022/12/03 10:59:16;;;;;;;0.00;0.00;;;;;;;11.46;61.59;102009.38;7357288;19;20025;-56
2022/12/03 11:01:42;;;;;;;0.00;0.00;;;;;;;11.38;61.79;102005.94;7359235;19;20050;-56
2022/12/03 11:04:18;;;;;;;0.00;0.00;;;;;;;11.37;61.97;102004.19;7359326;19;20018;-56
2022/12/03 11:06:43;;;;;;;0.00;0.00;;;;;;;11.30;61.89;102003.34;7361805;19;20038;-56
2022/12/03 11:09:24;;;;;;;0.10;0.10;;;;;;;11.29;62.37;102000.75;7348285;19;20635;-56
2022/12/03 11:11:49;;;;;;;0.00;0.00;;;;;;;11.12;62.18;101983.38;7358076;19;20798;-56
2022/12/03 11:14:50;;;;;;;0.00;0.00;;;;;;;11.30;62.36;102007.69;7358000;19;20026;-54
2022/12/03 11:17:46;;;;;;;0.00;0.00;;;;;;;11.33;62.32;101997.25;7252481;19;2004456;-55
2022/12/03 11:20:23;;;;;;;0.00;0.00;;;;;;;11.38;62.64;101995.47;7254361;19;2004373;-56
2022/12/03 11:22:53;;;;;;;0.00;0.00;;;;;;;11.40;62.22;101986.75;7357792;19;20108;-56
2022/12/03 11:25:25;;;;;;;0.10;0.10;;;;;;;11.47;62.78;101979.72;7357896;19;20014;-55
2022/12/03 11:28:26;;;;;;;0.10;0.10;;;;;;;11.57;62.77;101980.53;7360405;19;20037;-56
2022/12/03 11:30:55;;;;;;;0.08;0.08;;;;;;;11.56;62.31;101979.69;7250688;19;2004048;-56
2022/12/03 11:33:21;;;;;;;0.10;0.10;;;;;;;11.61;62.45;101977.91;7353813;19;20021;-56
2022/12/03 11:36:01;;;;;;;0.00;0.00;;;;;;;11.69;62.51;101976.09;7356300;19;20006;-56
2022/12/03 11:38:44;;;;;;;0.08;0.08;;;;;;;11.70;62.50;101975.19;7354095;19;20006;-55
2022/12/03 11:41:19;;;;;;;0.10;0.10;;;;;;;11.73;62.54;101981.31;7352160;19;20014;-56
2022/12/03 11:43:51;;;;;;;0.00;0.00;;;;;;;11.74;62.95;101975.19;7354512;19;20113;-56
2022/12/03 11:46:18;;;;;;;0.10;0.10;;;;;;;11.73;62.83;101968.22;7355323;19;20013;-56
2022/12/03 11:48:45;;;;;;;0.00;0.00;;;;;;;11.74;62.87;101967.34;7355962;19;20129;-55